createdAt,value
2018-09-26T00:03:21.801Z,3.05
2018-09-26T00:05:49.996Z,3.04
2018-09-26T00:08:18.401Z,3.02
2018-09-26T00:10:47.023Z,3.05
2018-09-26T00:13:15.291Z,3.07
2018-09-26T00:15:43.541Z,3.10
2018-09-26T00:18:11.808Z,3.17
2018-09-26T00:20:39.993Z,3.21
2018-09-26T00:23:08.389Z,3.27
2018-09-26T00:25:37.209Z,3.29
2018-09-26T00:28:05.439Z,3.29
2018-09-26T00:30:33.619Z,3.34
2018-09-26T00:33:01.833Z,3.30
2018-09-26T00:35:29.997Z,3.26
2018-09-26T00:37:58.297Z,3.17
2018-09-26T00:40:26.534Z,3.12
2018-09-26T00:42:54.715Z,3.17
2018-09-26T00:45:22.861Z,3.23
2018-09-26T00:47:51.112Z,3.19
2018-09-26T00:50:19.295Z,3.23
2018-09-26T00:52:47.466Z,3.26
2018-09-26T00:55:15.658Z,3.22
2018-09-26T00:57:43.862Z,3.21
2018-09-26T01:00:12.074Z,3.18
2018-09-26T01:02:40.266Z,3.13
2018-09-26T01:05:08.438Z,3.17
2018-09-26T01:07:36.625Z,3.21
2018-09-26T01:10:04.910Z,3.16
2018-09-26T01:12:33.142Z,3.20
2018-09-26T01:15:01.332Z,3.22
2018-09-26T01:17:29.556Z,3.14
2018-09-26T01:19:57.745Z,3.11
2018-09-26T01:22:25.926Z,3.03
2018-09-26T01:24:54.140Z,2.99
2018-09-26T01:27:22.317Z,3.05
2018-09-26T01:29:50.504Z,3.11
2018-09-26T01:32:18.992Z,3.05
2018-09-26T01:34:47.202Z,3.01
2018-09-26T01:37:15.340Z,3.03
2018-09-26T01:39:43.520Z,2.94
2018-09-26T01:42:11.737Z,2.96
2018-09-26T01:44:39.947Z,2.97
2018-09-26T01:47:08.132Z,3.01
2018-09-26T01:49:36.310Z,2.93
2018-09-26T01:52:04.476Z,2.95
2018-09-26T01:54:32.670Z,2.93
2018-09-26T01:57:00.842Z,2.85
2018-09-26T01:59:29.072Z,2.83
2018-09-26T02:01:57.273Z,2.80
2018-09-26T02:04:25.440Z,2.86
2018-09-26T02:06:53.614Z,2.76
2018-09-26T02:09:22.109Z,2.75
2018-09-26T02:11:50.289Z,2.75
2018-09-26T02:14:18.533Z,2.77
2018-09-26T02:16:46.724Z,2.75
2018-09-26T02:19:14.905Z,2.61
2018-09-26T02:21:43.198Z,2.57
2018-09-26T02:24:11.739Z,2.50
2018-09-26T02:26:39.917Z,2.49
2018-09-26T02:29:08.229Z,2.48
2018-09-26T02:31:36.433Z,2.41
2018-09-26T02:34:04.629Z,2.45
2018-09-26T02:36:32.797Z,2.40
2018-09-26T02:39:01.093Z,2.38
2018-09-26T02:41:29.279Z,2.34
2018-09-26T02:43:57.492Z,2.28
2018-09-26T02:46:25.843Z,2.28
2018-09-26T02:48:59.306Z,2.32
2018-09-26T02:51:27.499Z,2.37
2018-09-26T02:53:55.681Z,2.32
2018-09-26T02:56:23.863Z,2.33
2018-09-26T02:58:52.057Z,2.36
2018-09-26T03:01:20.240Z,2.28
2018-09-26T03:03:48.444Z,2.28
2018-09-26T03:06:16.682Z,2.29
2018-09-26T03:08:44.862Z,2.33
2018-09-26T03:11:13.081Z,2.26
2018-09-26T03:13:41.372Z,2.28
2018-09-26T03:16:09.636Z,2.30
2018-09-26T03:18:38.158Z,2.26
2018-09-26T03:21:06.341Z,2.23
2018-09-26T03:23:34.528Z,2.24
2018-09-26T03:26:02.966Z,2.20
2018-09-26T03:28:31.154Z,2.25
2018-09-26T03:30:59.335Z,2.21
2018-09-26T03:33:27.499Z,2.17
2018-09-26T03:35:55.755Z,2.15
2018-09-26T03:38:23.924Z,2.11
2018-09-26T03:40:52.409Z,2.13
2018-09-26T03:43:20.603Z,2.10
2018-09-26T03:45:48.862Z,2.07
2018-09-26T03:48:18.428Z,2.05
2018-09-26T03:50:46.632Z,2.09
2018-09-26T03:53:14.818Z,2.13
2018-09-26T03:55:43.007Z,2.04
2018-09-26T03:58:11.216Z,2.04
2018-09-26T04:00:39.398Z,2.08
2018-09-26T04:03:07.580Z,2.07
2018-09-26T04:05:36.098Z,2.04
2018-09-26T04:08:04.372Z,2.06
2018-09-26T04:10:32.554Z,1.99
2018-09-26T04:13:00.759Z,1.97
2018-09-26T04:15:29.004Z,1.94
2018-09-26T04:17:57.166Z,1.90
2018-09-26T04:20:25.532Z,1.90
2018-09-26T04:22:53.633Z,1.89
2018-09-26T04:25:21.810Z,1.95
2018-09-26T04:27:52.905Z,1.98
2018-09-26T04:30:21.120Z,2.03
2018-09-26T04:32:49.380Z,1.97
2018-09-26T04:35:17.522Z,1.90
2018-09-26T04:37:46.045Z,1.88
2018-09-26T04:40:14.241Z,1.95
2018-09-26T04:42:42.473Z,1.97
2018-09-26T04:45:10.645Z,1.90
2018-09-26T04:47:39.321Z,1.91
2018-09-26T04:50:07.525Z,1.97
2018-09-26T04:52:35.705Z,2.03
2018-09-26T04:55:03.901Z,2.08
2018-09-26T04:57:32.080Z,2.09
2018-09-26T05:00:00.261Z,2.07
2018-09-26T05:02:28.460Z,2.13
2018-09-26T05:04:56.630Z,2.17
2018-09-26T05:07:24.822Z,2.22
2018-09-26T05:09:53.034Z,2.27
2018-09-26T05:12:21.780Z,2.31
2018-09-26T05:14:50.063Z,2.34
2018-09-26T05:17:18.174Z,2.33
2018-09-26T05:19:46.422Z,2.47
2018-09-26T05:22:14.778Z,2.54
2018-09-26T05:24:43.014Z,2.62
2018-09-26T05:27:11.218Z,2.65
2018-09-26T05:29:39.415Z,2.71
2018-09-26T05:32:07.726Z,2.78
2018-09-26T05:34:35.914Z,2.89
2018-09-26T05:37:04.093Z,2.94
2018-09-26T05:39:32.283Z,2.87
2018-09-26T05:42:00.477Z,3.00
2018-09-26T05:44:28.761Z,3.11
2018-09-26T05:46:56.949Z,3.15
2018-09-26T05:49:25.132Z,3.13
2018-09-26T05:51:53.344Z,3.22
2018-09-26T05:54:21.544Z,3.30
2018-09-26T05:56:49.800Z,3.35
2018-09-26T05:59:18.014Z,3.50
2018-09-26T06:01:46.220Z,3.55
2018-09-26T06:04:14.393Z,3.58
2018-09-26T06:06:42.588Z,3.63
2018-09-26T06:09:12.725Z,3.79
2018-09-26T06:11:41.255Z,3.86
2018-09-26T06:14:10.317Z,4.03
2018-09-26T06:16:38.552Z,4.26
2018-09-26T06:19:07.518Z,4.40
2018-09-26T06:21:35.834Z,4.66
2018-09-26T06:24:04.467Z,4.90
2018-09-26T06:26:32.910Z,5.14
2018-09-26T06:29:01.146Z,5.37
2018-09-26T06:31:29.549Z,5.17
2018-09-26T06:33:57.733Z,4.92
2018-09-26T06:36:26.161Z,4.94
2018-09-26T06:38:54.447Z,4.94
2018-09-26T06:41:22.649Z,4.79
2018-09-26T06:43:50.887Z,4.73
2018-09-26T06:46:19.064Z,4.89
2018-09-26T06:48:47.255Z,4.87
2018-09-26T06:51:15.435Z,5.05
2018-09-26T06:56:39.393Z,5.25
2018-09-26T06:59:07.641Z,5.66
2018-09-26T07:01:35.805Z,5.86
2018-09-26T07:04:03.993Z,5.98
2018-09-26T07:06:32.191Z,6.49
2018-09-26T07:09:00.474Z,6.99
2018-09-26T07:11:28.749Z,7.37
2018-09-26T07:13:56.927Z,7.56
2018-09-26T07:16:25.489Z,7.50
2018-09-26T07:18:53.698Z,7.45
2018-09-26T07:21:22.145Z,7.69
2018-09-26T07:23:50.314Z,7.75
2018-09-26T07:26:18.512Z,8.16
2018-09-26T07:28:46.733Z,8.27
2018-09-26T07:31:14.917Z,8.37
2018-09-26T07:33:43.274Z,8.54
2018-09-26T07:36:11.474Z,8.91
2018-09-26T07:38:39.642Z,9.25
2018-09-26T07:41:07.906Z,9.52
2018-09-26T07:43:36.223Z,9.99
2018-09-26T07:46:04.390Z,10.34
2018-09-26T07:48:34.887Z,10.50
2018-09-26T07:51:03.060Z,10.62
2018-09-26T07:53:31.237Z,11.12
2018-09-26T07:55:59.462Z,11.30
2018-09-26T07:58:27.714Z,11.22
2018-09-26T08:00:56.036Z,11.23
2018-09-26T08:03:24.293Z,11.16
2018-09-26T08:05:52.582Z,11.05
2018-09-26T08:08:20.984Z,10.93
2018-09-26T08:10:49.221Z,11.16
2018-09-26T08:13:17.493Z,11.21
2018-09-26T08:15:45.757Z,11.47
2018-09-26T08:18:13.998Z,11.60
2018-09-26T08:20:42.205Z,11.78
2018-09-26T08:23:10.369Z,11.83
2018-09-26T08:25:38.586Z,11.76
2018-09-26T08:28:06.836Z,11.97
2018-09-26T08:30:35.005Z,11.98
2018-09-26T08:33:03.188Z,12.18
2018-09-26T08:35:31.344Z,12.14
2018-09-26T08:37:59.540Z,12.53
2018-09-26T08:40:27.722Z,12.35
2018-09-26T08:42:55.890Z,12.50
2018-09-26T08:45:24.126Z,12.66
2018-09-26T08:47:52.341Z,12.47
2018-09-26T08:50:20.597Z,12.22
2018-09-26T08:52:48.777Z,12.19
2018-09-26T08:55:16.962Z,12.22
2018-09-26T08:57:45.119Z,12.09
2018-09-26T09:00:13.421Z,12.23
2018-09-26T09:02:41.696Z,12.25
2018-09-26T09:05:16.429Z,12.24
2018-09-26T09:07:44.696Z,12.34
2018-09-26T09:10:12.967Z,12.44
2018-09-26T09:12:41.143Z,12.49
2018-09-26T09:15:09.329Z,12.39
2018-09-26T09:17:37.809Z,12.89
2018-09-26T09:20:06.397Z,13.09
2018-09-26T09:22:34.553Z,13.25
2018-09-26T09:25:02.748Z,13.46
2018-09-26T09:27:30.945Z,13.50
2018-09-26T09:29:59.118Z,13.49
2018-09-26T09:32:27.351Z,13.77
2018-09-26T09:34:55.513Z,13.68
2018-09-26T09:37:23.694Z,13.97
2018-09-26T09:39:51.862Z,13.99
2018-09-26T09:42:20.134Z,13.89
2018-09-26T09:44:48.318Z,14.23
2018-09-26T09:47:16.480Z,14.30
2018-09-26T09:49:44.667Z,14.52
2018-09-26T09:52:12.852Z,14.69
2018-09-26T09:54:41.030Z,14.49
2018-09-26T09:57:09.194Z,14.93
2018-09-26T09:59:37.635Z,15.15
2018-09-26T10:02:05.975Z,15.23
2018-09-26T10:04:34.126Z,15.35
2018-09-26T10:07:02.413Z,15.53
2018-09-26T10:09:30.566Z,15.59
2018-09-26T10:11:58.809Z,15.68
2018-09-26T10:14:27.100Z,16.16
2018-09-26T10:16:55.200Z,16.40
2018-09-26T10:19:23.685Z,16.30
2018-09-26T10:21:51.873Z,16.85
2018-09-26T10:24:20.045Z,17.47
2018-09-26T10:26:48.309Z,17.89
2018-09-26T10:29:16.645Z,18.03
2018-09-26T10:31:44.866Z,18.63
2018-09-26T10:34:13.025Z,20.07
2018-09-26T10:36:41.331Z,21.79
2018-09-26T10:39:10.157Z,24.30
2018-09-26T10:41:38.376Z,26.89
2018-09-26T10:44:07.063Z,28.31
2018-09-26T10:46:35.219Z,28.32
2018-09-26T10:49:03.355Z,29.01
2018-09-26T10:51:31.602Z,28.98
2018-09-26T10:53:59.778Z,28.88
2018-09-26T10:56:28.096Z,31.33
2018-09-26T10:58:56.238Z,30.87
2018-09-26T11:01:24.478Z,31.36
2018-09-26T11:03:52.670Z,32.19
2018-09-26T11:06:21.047Z,33.20
2018-09-26T11:08:49.238Z,33.62
2018-09-26T11:11:17.494Z,34.60
2018-09-26T11:13:45.753Z,34.33
2018-09-26T11:16:13.941Z,34.56
2018-09-26T11:18:42.152Z,33.91
2018-09-26T11:21:10.347Z,34.15
2018-09-26T11:23:38.620Z,33.45
2018-09-26T11:26:06.843Z,33.25
2018-09-26T11:28:34.967Z,30.30
2018-09-26T11:31:03.149Z,33.38
2018-09-26T11:33:31.396Z,35.30
2018-09-26T11:35:59.683Z,35.81
2018-09-26T11:38:27.937Z,36.66
2018-09-26T11:40:56.108Z,36.74
2018-09-26T11:43:24.306Z,37.36
2018-09-26T11:45:52.561Z,38.51
2018-09-26T11:48:21.597Z,39.78
2018-09-26T11:50:50.361Z,40.40
2018-09-26T11:53:18.656Z,41.70
2018-09-26T11:55:46.806Z,37.99
2018-09-26T11:58:15.166Z,35.91
2018-09-26T12:00:43.334Z,38.64
2018-09-26T12:03:11.569Z,37.56
2018-09-26T12:05:39.726Z,36.85
2018-09-26T12:08:08.010Z,39.87
2018-09-26T12:10:36.125Z,39.83
2018-09-26T12:13:04.409Z,39.75
2018-09-26T12:15:32.679Z,40.23
2018-09-26T12:18:00.835Z,42.93
2018-09-26T12:20:29.134Z,41.83
2018-09-26T12:22:57.289Z,41.19
2018-09-26T12:25:25.558Z,41.67
2018-09-26T12:27:53.711Z,40.43
2018-09-26T12:30:22.041Z,39.62
2018-09-26T12:32:50.415Z,42.34
2018-09-26T12:35:18.586Z,44.23
2018-09-26T12:37:46.744Z,45.18
2018-09-26T12:40:14.958Z,45.31
2018-09-26T12:42:43.139Z,44.73
2018-09-26T12:45:11.630Z,42.66
2018-09-26T12:47:40.189Z,43.78
2018-09-26T12:50:08.389Z,42.94
2018-09-26T12:52:36.609Z,43.82
2018-09-26T12:55:04.787Z,45.30
2018-09-26T12:57:32.960Z,44.58
2018-09-26T13:00:01.131Z,43.21
2018-09-26T13:02:29.358Z,41.57
2018-09-26T13:04:57.482Z,42.20
2018-09-26T13:07:25.640Z,44.61
2018-09-26T13:09:53.829Z,45.34
2018-09-26T13:12:22.066Z,46.42
2018-09-26T13:14:50.231Z,46.11
2018-09-26T13:17:18.387Z,46.09
2018-09-26T13:19:46.556Z,46.24
2018-09-26T13:22:14.758Z,46.36
2018-09-26T13:24:42.866Z,47.06
2018-09-26T13:27:11.141Z,45.69
2018-09-26T13:29:39.333Z,45.57
2018-09-26T13:32:07.563Z,44.71
2018-09-26T13:34:35.698Z,44.27
2018-09-26T13:37:04.713Z,45.00
2018-09-26T13:39:32.946Z,45.70
2018-09-26T13:42:01.055Z,42.51
2018-09-26T13:44:29.823Z,44.13
2018-09-26T13:46:57.983Z,46.45
2018-09-26T13:49:26.259Z,45.68
2018-09-26T13:51:54.414Z,45.84
2018-09-26T13:54:22.629Z,45.62
2018-09-26T13:56:51.411Z,43.76
2018-09-26T13:59:19.674Z,44.12
2018-09-26T14:01:47.850Z,44.17
2018-09-26T14:04:16.084Z,42.77
2018-09-26T14:06:44.178Z,41.68
2018-09-26T14:09:12.340Z,37.21
2018-09-26T14:11:40.573Z,37.33
2018-09-26T14:14:08.780Z,36.62
2018-09-26T14:16:37.023Z,37.56
2018-09-26T14:19:05.422Z,39.45
2018-09-26T14:21:35.344Z,38.96
2018-09-26T14:24:03.608Z,35.30
2018-09-26T14:26:31.784Z,32.62
2018-09-26T14:29:00.042Z,34.90
2018-09-26T14:31:28.353Z,35.06
2018-09-26T14:33:57.250Z,35.35
2018-09-26T14:36:29.134Z,32.58
2018-09-26T14:38:58.090Z,32.93
2018-09-26T14:41:26.330Z,33.84
2018-09-26T14:43:54.401Z,32.98
2018-09-26T14:46:23.189Z,31.83
2018-09-26T14:48:51.357Z,30.68
2018-09-26T14:51:19.612Z,28.79
2018-09-26T14:53:47.916Z,26.70
2018-09-26T14:56:16.256Z,26.95
2018-09-26T14:58:44.510Z,25.73
2018-09-26T15:01:12.692Z,25.46
2018-09-26T15:03:41.020Z,24.32
2018-09-26T15:06:09.318Z,24.05
2018-09-26T15:08:37.526Z,23.72
2018-09-26T15:11:05.876Z,23.39
2018-09-26T15:13:34.061Z,23.25
2018-09-26T15:16:02.246Z,22.93
2018-09-26T15:18:30.397Z,22.64
2018-09-26T15:20:58.549Z,22.45
2018-09-26T15:23:27.029Z,22.24
2018-09-26T15:25:55.244Z,21.95
2018-09-26T15:28:23.446Z,21.84
2018-09-26T15:30:51.636Z,21.76
2018-09-26T15:33:19.805Z,21.43
2018-09-26T15:35:47.992Z,21.28
2018-09-26T15:38:16.703Z,21.34
2018-09-26T15:40:44.880Z,21.33
2018-09-26T15:43:13.054Z,21.30
2018-09-26T15:45:41.272Z,20.97
2018-09-26T15:48:09.472Z,20.47
2018-09-26T15:50:37.672Z,20.60
2018-09-26T15:53:05.946Z,20.30
2018-09-26T15:55:34.209Z,20.19
2018-09-26T15:58:02.297Z,19.75
2018-09-26T16:00:30.564Z,19.69
2018-09-26T16:02:58.854Z,19.39
2018-09-26T16:05:27.030Z,19.23
2018-09-26T16:07:55.508Z,19.16
2018-09-26T16:10:23.778Z,19.02
2018-09-26T16:12:51.944Z,18.87
2018-09-26T16:15:20.238Z,18.75
2018-09-26T16:17:48.422Z,18.39
2018-09-26T16:20:16.621Z,18.22
2018-09-26T16:22:44.833Z,18.00
2018-09-26T16:25:13.067Z,17.86
2018-09-26T16:27:41.398Z,17.74
2018-09-26T16:30:09.989Z,17.42
2018-09-26T16:32:38.163Z,17.15
2018-09-26T16:35:06.544Z,16.99
2018-09-26T16:37:34.740Z,16.70
2018-09-26T16:40:02.934Z,16.39
2018-09-26T16:42:31.109Z,16.25
2018-09-26T16:44:59.310Z,16.03
2018-09-26T16:47:27.486Z,15.94
2018-09-26T16:49:55.683Z,15.87
2018-09-26T16:52:23.945Z,15.53
2018-09-26T16:57:55.202Z,15.39
2018-09-26T17:00:23.423Z,15.26
2018-09-26T17:02:51.533Z,15.21
2018-09-26T17:05:19.823Z,15.00
2018-09-26T17:07:48.247Z,14.96
2018-09-26T17:10:16.437Z,14.75
2018-09-26T17:12:44.876Z,14.38
2018-09-26T17:15:13.150Z,14.24
2018-09-26T17:17:41.361Z,14.21
2018-09-26T17:20:09.728Z,14.20
2018-09-26T17:22:37.861Z,14.01
2018-09-26T17:25:06.090Z,13.80
2018-09-26T17:27:34.279Z,13.72
2018-09-26T17:30:02.506Z,13.60
2018-09-26T17:32:37.476Z,13.39
2018-09-26T17:35:05.769Z,13.31
2018-09-26T17:37:34.006Z,13.24
2018-09-26T17:40:02.317Z,13.12
2018-09-26T17:42:30.591Z,12.86
2018-09-26T17:44:58.799Z,12.67
2018-09-26T17:47:27.002Z,12.58
2018-09-26T17:49:55.213Z,12.51
2018-09-26T17:52:23.545Z,12.54
2018-09-26T17:54:51.705Z,12.46
2018-09-26T17:57:19.937Z,12.34
2018-09-26T17:59:48.130Z,12.27
2018-09-26T18:02:16.667Z,12.25
2018-09-26T18:04:44.857Z,12.20
2018-09-26T18:07:13.037Z,12.12
2018-09-26T18:09:41.314Z,12.11
2018-09-26T18:12:09.588Z,12.03
2018-09-26T18:14:37.772Z,11.99
2018-09-26T18:17:06.048Z,11.98
2018-09-26T18:19:34.251Z,11.97
2018-09-26T18:22:02.433Z,11.95
2018-09-26T18:24:31.422Z,11.93
2018-09-26T18:26:59.682Z,11.88
2018-09-26T18:29:27.866Z,11.73
2018-09-26T18:31:56.077Z,11.61
2018-09-26T18:34:24.258Z,11.49
2018-09-26T18:36:52.448Z,11.43
2018-09-26T18:39:20.813Z,11.35
2018-09-26T18:41:49.020Z,11.29
2018-09-26T18:44:17.579Z,11.22
2018-09-26T18:46:45.789Z,11.21
2018-09-26T18:49:13.982Z,11.33
2018-09-26T18:51:42.166Z,11.30
2018-09-26T18:54:10.361Z,11.31
2018-09-26T18:56:38.554Z,11.37
2018-09-26T18:59:06.903Z,11.33
2018-09-26T19:01:35.351Z,11.32
2018-09-26T19:04:03.603Z,11.25
2018-09-26T19:06:32.186Z,11.16
2018-09-26T19:09:00.535Z,11.04
2018-09-26T19:11:28.829Z,10.99
2018-09-26T19:13:57.055Z,10.94
2018-09-26T19:16:25.286Z,10.91
2018-09-26T19:18:53.678Z,10.57
2018-09-26T19:21:21.913Z,10.36
2018-09-26T19:23:50.133Z,10.32
2018-09-26T19:26:18.413Z,10.20
2018-09-26T19:28:46.618Z,10.19
2018-09-26T19:31:15.455Z,10.17
2018-09-26T19:33:43.969Z,10.06
2018-09-26T19:36:12.360Z,10.33
2018-09-26T19:38:40.604Z,10.26
2018-09-26T19:41:08.848Z,10.29
2018-09-26T19:43:37.094Z,10.13
2018-09-26T19:46:05.356Z,10.12
2018-09-26T19:48:35.742Z,10.05
2018-09-26T19:51:04.128Z,9.94
2018-09-26T19:53:32.292Z,9.92
2018-09-26T19:56:00.646Z,9.76
2018-09-26T19:58:28.896Z,9.72
2018-09-26T20:00:57.049Z,9.53
2018-09-26T20:03:25.305Z,9.43
2018-09-26T20:05:53.533Z,9.43
2018-09-26T20:08:21.844Z,9.40
2018-09-26T20:10:50.027Z,9.31
2018-09-26T20:13:18.255Z,9.23
2018-09-26T20:15:46.521Z,9.18
2018-09-26T20:18:14.751Z,9.23
2018-09-26T20:20:43.024Z,9.20
2018-09-26T20:23:11.381Z,9.18
2018-09-26T20:25:39.419Z,9.02
2018-09-26T20:28:07.613Z,9.00
2018-09-26T20:30:35.997Z,8.91
2018-09-26T20:33:04.288Z,8.92
2018-09-26T20:35:32.508Z,8.92
2018-09-26T20:38:00.657Z,8.86
2018-09-26T20:40:28.834Z,8.81
2018-09-26T20:42:57.094Z,8.92
2018-09-26T20:45:25.326Z,8.97
2018-09-26T20:47:53.455Z,8.84
2018-09-26T20:50:21.628Z,8.86
2018-09-26T20:52:49.853Z,8.82
2018-09-26T20:55:18.082Z,8.65
2018-09-26T20:57:46.349Z,8.66
2018-09-26T21:00:14.638Z,8.64
2018-09-26T21:02:43.818Z,8.61
2018-09-26T21:05:12.343Z,8.45
2018-09-26T21:07:40.689Z,8.36
2018-09-26T21:10:09.593Z,8.29
2018-09-26T21:12:37.777Z,8.38
2018-09-26T21:15:06.022Z,8.34
2018-09-26T21:17:35.009Z,8.32
2018-09-26T21:20:03.442Z,8.27
2018-09-26T21:22:31.722Z,8.22
2018-09-26T21:25:01.245Z,8.26
2018-09-26T21:27:29.550Z,8.16
2018-09-26T21:29:57.761Z,8.08
2018-09-26T21:32:25.935Z,8.19
2018-09-26T21:34:54.100Z,8.40
2018-09-26T21:37:22.289Z,8.26
2018-09-26T21:39:50.455Z,8.13
2018-09-26T21:42:18.633Z,8.08
2018-09-26T21:44:46.813Z,7.95
2018-09-26T21:47:14.981Z,7.85
2018-09-26T21:49:43.133Z,7.76
2018-09-26T21:52:11.293Z,7.68
2018-09-26T21:54:39.479Z,7.52
2018-09-26T21:57:07.905Z,7.49
2018-09-26T21:59:36.101Z,7.42
2018-09-26T22:02:04.260Z,7.33
2018-09-26T22:04:32.434Z,7.36
2018-09-26T22:07:00.752Z,7.37
2018-09-26T22:09:29.010Z,7.36
2018-09-26T22:11:57.261Z,7.41
2018-09-26T22:14:25.613Z,7.45
2018-09-26T22:16:53.765Z,7.43
2018-09-26T22:19:21.992Z,7.47
2018-09-26T22:21:50.169Z,7.43
2018-09-26T22:24:18.329Z,7.32
2018-09-26T22:26:46.480Z,7.34
2018-09-26T22:29:14.797Z,7.30
2018-09-26T22:31:42.987Z,7.35
2018-09-26T22:34:11.441Z,7.27
2018-09-26T22:36:39.633Z,7.23
2018-09-26T22:39:09.177Z,7.29
2018-09-26T22:41:37.388Z,7.31
2018-09-26T22:44:05.615Z,7.31
2018-09-26T22:46:33.773Z,7.28
2018-09-26T22:49:02.171Z,7.24
2018-09-26T22:51:30.575Z,7.19
2018-09-26T22:53:58.810Z,7.21
2018-09-26T22:56:26.965Z,7.14
2018-09-26T22:58:55.125Z,7.12
2018-09-26T23:01:23.709Z,7.08
2018-09-26T23:03:51.881Z,7.07
2018-09-26T23:06:20.185Z,7.03
2018-09-26T23:08:48.337Z,7.04
2018-09-26T23:11:16.508Z,6.69
2018-09-26T23:13:44.693Z,6.89
2018-09-26T23:16:12.857Z,6.85
2018-09-26T23:18:41.038Z,6.84
2018-09-26T23:21:09.201Z,6.81
2018-09-26T23:23:37.404Z,6.81
2018-09-26T23:26:05.664Z,6.68
2018-09-26T23:28:33.836Z,6.62
2018-09-26T23:31:01.994Z,6.53
2018-09-26T23:33:30.140Z,6.53
2018-09-26T23:35:58.360Z,6.58
2018-09-26T23:38:26.512Z,6.46
2018-09-26T23:40:54.660Z,6.44
2018-09-26T23:43:22.820Z,6.45
2018-09-26T23:45:51.045Z,6.67
2018-09-26T23:48:20.236Z,6.68
2018-09-26T23:50:48.467Z,6.67
2018-09-26T23:53:16.690Z,6.67
2018-09-26T23:55:44.885Z,6.66
2018-09-26T23:58:13.046Z,6.59
